createdAt,value
2023-04-19T00:00:12.748Z,21.75
2023-04-19T00:02:43.312Z,18.65
2023-04-19T00:05:14.180Z,20.40
2023-04-19T00:07:42.561Z,18.55
2023-04-19T00:10:11.921Z,20.05
2023-04-19T00:12:40.360Z,18.92
2023-04-19T00:15:09.732Z,18.45
2023-04-19T00:17:38.103Z,19.15
2023-04-19T00:20:08.788Z,17.17
2023-04-19T00:22:38.130Z,19.13
2023-04-19T00:25:07.098Z,18.38
2023-04-19T00:27:36.342Z,18.33
2023-04-19T00:30:05.548Z,18.65
2023-04-19T00:32:34.641Z,19.02
2023-04-19T00:35:03.801Z,18.85
2023-04-19T00:37:36.150Z,20.25
2023-04-19T00:40:07.006Z,20.00
2023-04-19T00:42:38.789Z,20.10
2023-04-19T00:45:08.928Z,23.85
2023-04-19T00:47:38.832Z,20.13
2023-04-19T00:50:09.636Z,18.73
2023-04-19T00:52:39.587Z,18.85
2023-04-19T00:55:09.787Z,20.67
2023-04-19T00:57:38.971Z,18.48
2023-04-19T01:00:10.238Z,20.75
2023-04-19T01:02:38.700Z,20.50
2023-04-19T01:05:09.184Z,18.88
2023-04-19T01:07:39.036Z,20.15
2023-04-19T01:10:08.703Z,21.48
2023-04-19T01:12:37.225Z,20.52
2023-04-19T01:15:07.000Z,21.00
2023-04-19T01:17:36.542Z,18.98
2023-04-19T01:20:08.139Z,20.73
2023-04-19T01:22:39.128Z,22.40
2023-04-19T01:25:08.754Z,21.58
2023-04-19T01:27:38.852Z,21.00
2023-04-19T01:30:08.491Z,20.25
2023-04-19T01:32:38.621Z,22.00
2023-04-19T01:35:07.806Z,24.20
2023-04-19T01:37:38.639Z,22.48
2023-04-19T01:40:08.349Z,25.33
2023-04-19T01:42:38.758Z,23.75
2023-04-19T01:45:08.070Z,23.70
2023-04-19T01:47:37.756Z,22.58
2023-04-19T01:50:07.385Z,21.08
2023-04-19T01:52:39.068Z,24.77
2023-04-19T01:55:08.974Z,23.23
2023-04-19T01:57:37.332Z,22.10
2023-04-19T02:00:07.720Z,21.08
2023-04-19T02:02:43.147Z,24.05
2023-04-19T02:05:12.451Z,24.27
2023-04-19T02:07:43.128Z,23.98
2023-04-19T02:10:13.385Z,22.92
2023-04-19T02:12:42.950Z,22.70
2023-04-19T02:15:11.853Z,23.50
2023-04-19T02:17:41.095Z,22.02
2023-04-19T02:20:10.866Z,21.10
2023-04-19T02:22:39.266Z,22.95
2023-04-19T02:25:09.864Z,24.75
2023-04-19T02:27:38.343Z,26.15
2023-04-19T02:30:08.784Z,24.83
2023-04-19T02:32:37.302Z,21.67
2023-04-19T02:35:09.321Z,25.60
2023-04-19T02:37:37.732Z,26.02
2023-04-19T02:40:10.823Z,26.67
2023-04-19T02:42:39.256Z,25.08
2023-04-19T02:45:09.947Z,25.33
2023-04-19T02:47:38.763Z,21.80
2023-04-19T02:50:08.449Z,23.77
2023-04-19T02:52:44.314Z,22.00
2023-04-19T02:55:14.129Z,24.90
2023-04-19T02:57:43.447Z,23.80
2023-04-19T03:00:14.008Z,24.13
2023-04-19T03:02:52.233Z,24.23
2023-04-19T03:05:21.048Z,24.02
2023-04-19T03:07:49.968Z,24.15
2023-04-19T03:10:19.796Z,26.17
2023-04-19T03:12:49.478Z,23.35
2023-04-19T03:15:17.883Z,25.20
2023-04-19T03:17:46.897Z,24.13
2023-04-19T03:20:17.161Z,27.17
2023-04-19T03:22:46.482Z,25.73
2023-04-19T03:25:15.987Z,24.13
2023-04-19T03:27:52.104Z,23.42
2023-04-19T03:30:28.787Z,25.88
2023-04-19T03:33:00.493Z,26.98
2023-04-19T03:35:30.899Z,25.52
2023-04-19T03:38:07.747Z,26.67
2023-04-19T03:40:39.561Z,25.52
2023-04-19T03:43:11.879Z,24.75
2023-04-19T03:45:41.596Z,25.42
2023-04-19T03:48:10.133Z,23.50
2023-04-19T03:50:39.063Z,26.42
2023-04-19T03:53:08.028Z,26.55
2023-04-19T03:55:36.583Z,22.25
2023-04-19T03:58:06.126Z,28.50
2023-04-19T04:00:43.615Z,25.15
2023-04-19T04:03:15.197Z,24.52
2023-04-19T04:05:43.748Z,27.10
2023-04-19T04:08:14.261Z,27.30
2023-04-19T04:10:43.101Z,25.10
2023-04-19T04:13:12.971Z,28.15
2023-04-19T04:15:50.609Z,24.98
2023-04-19T04:18:20.057Z,28.65
2023-04-19T04:20:49.230Z,26.33
2023-04-19T04:23:18.052Z,28.63
2023-04-19T04:25:59.549Z,25.48
2023-04-19T04:28:33.454Z,26.35
2023-04-19T04:31:04.452Z,26.30
2023-04-19T04:33:34.932Z,28.42
2023-04-19T04:36:06.816Z,27.88
2023-04-19T04:38:37.914Z,25.67
2023-04-19T04:41:07.557Z,27.67
2023-04-19T04:43:36.396Z,29.13
2023-04-19T04:46:06.433Z,27.10
2023-04-19T04:48:40.314Z,28.08
2023-04-19T04:51:08.726Z,30.30
2023-04-19T04:53:38.230Z,25.75
2023-04-19T04:56:07.979Z,25.67
2023-04-19T04:58:37.176Z,26.65
2023-04-19T05:01:10.762Z,30.83
2023-04-19T05:03:41.749Z,27.92
2023-04-19T05:06:15.347Z,27.52
2023-04-19T05:08:44.312Z,30.35
2023-04-19T05:11:25.420Z,31.05
2023-04-19T05:13:56.000Z,29.55
2023-04-19T05:16:26.862Z,30.02
2023-04-19T05:18:55.435Z,30.20
2023-04-19T05:21:26.869Z,31.88
2023-04-19T05:23:56.398Z,29.60
2023-04-19T05:26:25.005Z,29.33
2023-04-19T05:28:56.522Z,28.50
2023-04-19T05:31:39.896Z,28.30
2023-04-19T05:34:19.207Z,31.00
2023-04-19T05:36:50.158Z,33.03
2023-04-19T05:39:19.041Z,29.52
2023-04-19T05:41:47.373Z,29.33
2023-04-19T05:44:16.954Z,31.40
2023-04-19T05:46:47.441Z,30.75
2023-04-19T05:49:20.804Z,31.50
2023-04-19T05:52:16.806Z,29.27
2023-04-19T05:54:48.587Z,30.58
2023-04-19T05:57:17.844Z,28.58
2023-04-19T05:59:46.288Z,29.42
2023-04-19T06:02:19.877Z,31.80
2023-04-19T06:04:48.505Z,26.33
2023-04-19T06:07:31.097Z,28.02
2023-04-19T06:10:00.123Z,29.17
2023-04-19T06:12:29.141Z,31.27
2023-04-19T06:14:58.029Z,29.65
2023-04-19T06:17:28.956Z,30.73
2023-04-19T06:19:57.870Z,29.00
2023-04-19T06:22:26.726Z,29.52
2023-04-19T06:24:56.039Z,33.25
2023-04-19T06:27:24.725Z,30.55
2023-04-19T06:29:53.055Z,29.67
2023-04-19T06:32:21.925Z,29.33
2023-04-19T06:34:51.936Z,29.38
2023-04-19T06:37:21.021Z,28.92
2023-04-19T06:39:49.608Z,33.72
2023-04-19T06:42:20.287Z,30.10
2023-04-19T06:44:48.698Z,35.28
2023-04-19T06:47:17.492Z,29.58
2023-04-19T06:49:45.959Z,30.92
2023-04-19T06:52:15.840Z,30.13
2023-04-19T06:54:49.281Z,29.80
2023-04-19T06:57:18.006Z,29.25
2023-04-19T06:59:47.555Z,29.05
2023-04-19T07:02:16.070Z,30.02
2023-04-19T07:04:45.387Z,27.80
2023-04-19T07:07:15.697Z,22.63
2023-04-19T07:09:44.944Z,26.70
2023-04-19T07:12:13.308Z,30.10
2023-04-19T07:14:42.134Z,29.15
2023-04-19T07:17:10.513Z,27.75
2023-04-19T07:19:38.902Z,28.40
2023-04-19T07:22:07.735Z,28.50
2023-04-19T07:24:40.232Z,31.83
2023-04-19T07:27:08.636Z,28.73
2023-04-19T07:29:37.248Z,25.98
2023-04-19T07:32:06.414Z,26.73
2023-04-19T07:34:35.321Z,28.42
2023-04-19T07:37:03.651Z,29.30
2023-04-19T07:39:33.564Z,25.67
2023-04-19T07:42:03.278Z,28.00
2023-04-19T07:44:32.142Z,27.98
2023-04-19T07:47:01.055Z,30.42
2023-04-19T07:49:33.873Z,27.75
2023-04-19T07:52:03.456Z,24.67
2023-04-19T07:54:32.270Z,28.05
2023-04-19T07:57:01.148Z,25.98
2023-04-19T07:59:33.323Z,28.13
2023-04-19T08:02:02.734Z,25.27
2023-04-19T08:04:31.720Z,24.48
2023-04-19T08:07:00.848Z,26.60
2023-04-19T08:09:29.372Z,25.60
2023-04-19T08:11:59.027Z,28.33
2023-04-19T08:14:37.712Z,27.42
2023-04-19T08:17:25.372Z,27.05
2023-04-19T08:19:55.867Z,26.33
2023-04-19T08:22:24.690Z,28.77
2023-04-19T08:24:53.739Z,25.90
2023-04-19T08:27:23.034Z,25.20
2023-04-19T08:29:51.570Z,26.00
2023-04-19T08:32:21.334Z,26.23
2023-04-19T08:34:49.940Z,28.45
2023-04-19T08:37:18.889Z,27.58
2023-04-19T08:39:47.306Z,27.00
2023-04-19T08:42:28.752Z,25.80
2023-04-19T08:52:54.872Z,26.70
2023-04-19T08:55:27.516Z,25.92
2023-04-19T08:57:58.276Z,27.70
2023-04-19T09:00:26.650Z,26.08
2023-04-19T09:02:57.909Z,27.25
2023-04-19T09:05:27.048Z,27.65
2023-04-19T09:07:55.580Z,30.80
2023-04-19T09:10:26.428Z,26.15
2023-04-19T09:13:02.641Z,26.35
2023-04-19T09:15:39.881Z,29.73
2023-04-19T09:18:11.375Z,30.35
2023-04-19T09:20:42.122Z,26.40
2023-04-19T09:23:13.055Z,28.92
2023-04-19T09:26:05.749Z,32.72
2023-04-19T09:28:31.472Z,31.10
2023-04-19T09:31:30.306Z,27.10
2023-04-19T09:34:16.657Z,27.67
2023-04-19T09:36:45.235Z,25.55
2023-04-19T09:39:16.023Z,26.80
2023-04-19T09:42:03.065Z,23.38
2023-04-19T09:45:09.442Z,24.70
2023-04-19T09:47:25.012Z,26.20
2023-04-19T09:50:21.707Z,23.27
2023-04-19T09:52:51.899Z,23.73
2023-04-19T09:57:53.052Z,22.75
2023-04-19T10:00:23.934Z,22.90
2023-04-19T10:02:58.016Z,24.00
2023-04-19T10:05:29.042Z,23.10
2023-04-19T10:08:00.408Z,24.17
2023-04-19T10:13:19.133Z,21.67
2023-04-19T10:15:54.121Z,19.75
2023-04-19T10:18:26.393Z,21.20
2023-04-19T10:21:02.947Z,18.45
2023-04-19T10:23:33.648Z,17.85
2023-04-19T10:26:02.950Z,20.15
2023-04-19T10:28:31.833Z,18.88
2023-04-19T10:31:02.703Z,17.42
2023-04-19T10:33:35.549Z,17.00
2023-04-19T10:36:10.120Z,14.10
2023-04-19T10:38:40.461Z,16.95
2023-04-19T10:41:17.076Z,15.82
2023-04-19T10:43:48.570Z,15.23
2023-04-19T10:46:38.721Z,15.73
2023-04-19T10:49:08.321Z,14.90
2023-04-19T10:51:42.287Z,17.67
2023-04-19T10:54:29.778Z,22.52
2023-04-19T10:57:04.569Z,17.40
2023-04-19T10:59:34.847Z,17.23
2023-04-19T11:02:05.993Z,17.05
2023-04-19T11:05:03.888Z,19.23
2023-04-19T11:07:43.650Z,14.15
2023-04-19T11:10:13.070Z,13.60
2023-04-19T11:12:45.849Z,15.02
2023-04-19T11:15:15.785Z,15.38
2023-04-19T11:17:44.183Z,16.05
2023-04-19T11:20:15.307Z,15.40
2023-04-19T11:22:48.359Z,13.18
2023-04-19T11:25:19.026Z,12.05
2023-04-19T11:27:49.425Z,12.43
2023-04-19T11:30:21.436Z,13.23
2023-04-19T11:32:53.488Z,12.73
2023-04-19T11:35:23.617Z,11.45
2023-04-19T11:37:54.704Z,11.75
2023-04-19T11:40:26.383Z,12.65
2023-04-19T11:42:56.068Z,12.65
2023-04-19T11:45:31.129Z,12.23
2023-04-19T11:48:00.733Z,9.48
2023-04-19T11:50:37.774Z,10.52
2023-04-19T11:53:19.997Z,9.55
2023-04-19T11:55:51.796Z,8.93
2023-04-19T11:58:31.879Z,10.80
2023-04-19T12:01:07.098Z,9.30
2023-04-19T12:03:36.329Z,9.00
2023-04-19T12:06:09.122Z,8.55
2023-04-19T12:08:40.526Z,8.40
2023-04-19T12:11:09.171Z,9.63
2023-04-19T12:13:38.825Z,9.85
2023-04-19T12:16:08.257Z,9.07
2023-04-19T12:18:46.000Z,10.10
2023-04-19T12:21:25.692Z,8.65
2023-04-19T12:23:57.794Z,11.15
2023-04-19T12:26:28.237Z,10.00
2023-04-19T12:28:58.664Z,9.50
2023-04-19T12:31:27.322Z,7.95
2023-04-19T12:33:57.340Z,8.38
2023-04-19T12:36:26.378Z,8.48
2023-04-19T12:38:56.220Z,8.38
2023-04-19T12:41:25.551Z,7.32
2023-04-19T12:43:53.924Z,7.63
2023-04-19T12:46:24.135Z,7.25
2023-04-19T12:48:52.522Z,7.07
2023-04-19T12:51:21.369Z,7.13
2023-04-19T12:53:50.375Z,7.43
2023-04-19T12:56:21.740Z,8.23
2023-04-19T12:58:50.094Z,6.82
2023-04-19T13:01:18.904Z,6.85
2023-04-19T13:03:47.536Z,8.55
2023-04-19T13:06:17.819Z,7.70
2023-04-19T13:08:48.000Z,7.28
2023-04-19T13:11:23.627Z,7.50
2023-04-19T13:13:54.029Z,6.78
2023-04-19T13:16:23.184Z,7.28
2023-04-19T13:18:52.519Z,8.25
2023-04-19T13:21:23.407Z,9.05
2023-04-19T13:23:52.217Z,7.15
2023-04-19T13:26:20.604Z,7.25
2023-04-19T13:28:49.333Z,6.63
2023-04-19T13:31:19.706Z,6.82
2023-04-19T13:33:48.226Z,6.35
2023-04-19T13:36:17.202Z,6.47
2023-04-19T13:38:45.876Z,7.75
2023-04-19T13:41:15.315Z,6.63
2023-04-19T13:43:43.674Z,11.23
2023-04-19T13:46:13.135Z,9.70
2023-04-19T13:48:42.865Z,8.30
2023-04-19T13:51:12.145Z,8.23
2023-04-19T13:53:42.004Z,10.27
2023-04-19T13:56:10.816Z,9.77
2023-04-19T13:58:40.711Z,10.02
2023-04-19T14:01:09.163Z,13.23
2023-04-19T14:03:38.875Z,10.95
2023-04-19T14:06:08.802Z,9.70
2023-04-19T14:08:37.595Z,12.75
2023-04-19T14:11:06.209Z,10.38
2023-04-19T14:13:35.694Z,9.90
2023-04-19T14:16:04.783Z,11.57
2023-04-19T14:18:33.501Z,10.98
2023-04-19T14:21:02.334Z,9.38
2023-04-19T14:23:32.284Z,9.82
2023-04-19T14:26:01.140Z,10.77
2023-04-19T14:28:29.513Z,10.55
2023-04-19T14:30:58.649Z,9.32
2023-04-19T14:33:27.181Z,9.07
2023-04-19T14:35:57.280Z,8.95
2023-04-19T14:38:26.101Z,8.63
2023-04-19T14:40:56.294Z,8.32
2023-04-19T14:43:26.365Z,11.55
2023-04-19T14:45:55.428Z,9.70
2023-04-19T14:48:24.356Z,8.23
2023-04-19T14:50:52.681Z,8.70
2023-04-19T14:53:21.905Z,8.48
2023-04-19T14:55:50.216Z,8.20
2023-04-19T14:58:20.691Z,8.88
2023-04-19T15:00:50.802Z,10.07
2023-04-19T15:03:20.265Z,8.82
2023-04-19T15:05:49.474Z,9.60
2023-04-19T15:10:52.333Z,9.50
2023-04-19T15:13:22.077Z,8.35
2023-04-19T15:15:51.658Z,12.90
2023-04-19T15:18:20.055Z,10.82
2023-04-19T15:20:49.212Z,10.10
2023-04-19T15:23:18.025Z,8.82
2023-04-19T15:25:47.504Z,9.95
2023-04-19T15:28:15.870Z,11.25
2023-04-19T15:30:45.513Z,11.70
2023-04-19T15:33:14.847Z,9.35
2023-04-19T15:35:43.194Z,8.40
2023-04-19T15:38:12.744Z,8.05
2023-04-19T15:40:41.527Z,9.15
2023-04-19T15:43:10.173Z,12.02
2023-04-19T15:45:38.866Z,11.43
2023-04-19T15:48:09.299Z,12.77
2023-04-19T15:50:37.989Z,14.02
2023-04-19T15:53:08.327Z,15.35
2023-04-19T15:55:37.077Z,13.23
2023-04-19T15:58:06.950Z,16.10
2023-04-19T16:00:35.367Z,15.00
2023-04-19T16:03:04.419Z,13.52
2023-04-19T16:05:34.180Z,14.45
2023-04-19T16:08:04.125Z,15.10
2023-04-19T16:10:32.820Z,13.40
2023-04-19T16:13:02.590Z,13.95
2023-04-19T16:15:31.014Z,14.68
2023-04-19T16:17:59.484Z,13.35
2023-04-19T16:20:27.885Z,14.07
2023-04-19T16:22:58.939Z,11.82
2023-04-19T16:25:28.745Z,12.40
2023-04-19T16:27:57.304Z,10.20
2023-04-19T16:30:27.314Z,9.60
2023-04-19T16:32:57.462Z,9.00
2023-04-19T16:35:27.086Z,9.43
2023-04-19T16:37:57.902Z,10.00
2023-04-19T16:40:27.226Z,11.75
2023-04-19T16:42:55.713Z,13.18
2023-04-19T16:45:24.866Z,8.68
2023-04-19T16:47:53.753Z,9.10
2023-04-19T16:50:23.026Z,8.68
2023-04-19T16:52:51.395Z,11.23
2023-04-19T16:55:22.533Z,9.18
2023-04-19T16:57:51.548Z,11.27
2023-04-19T17:00:20.407Z,10.43
2023-04-19T17:02:49.258Z,10.07
2023-04-19T17:05:17.804Z,12.25
2023-04-19T17:07:47.198Z,9.38
2023-04-19T17:10:15.886Z,11.65
2023-04-19T17:12:46.398Z,9.13
2023-04-19T17:15:14.742Z,8.60
2023-04-19T17:17:44.261Z,11.90
2023-04-19T17:20:13.583Z,10.95
2023-04-19T17:22:42.998Z,10.60
2023-04-19T17:25:11.792Z,10.35
2023-04-19T17:27:40.099Z,10.13
2023-04-19T17:30:11.129Z,10.15
2023-04-19T17:32:39.661Z,11.93
2023-04-19T17:35:09.286Z,13.43
2023-04-19T17:37:37.838Z,12.38
2023-04-19T17:40:08.473Z,13.13
2023-04-19T17:42:36.807Z,11.55
2023-04-19T17:45:11.231Z,12.90
2023-04-19T17:47:41.836Z,19.75
2023-04-19T17:50:13.297Z,15.13
2023-04-19T17:52:41.633Z,16.88
2023-04-19T17:55:10.806Z,13.48
2023-04-19T17:57:40.120Z,11.43
2023-04-19T18:00:11.802Z,13.05
2023-04-19T18:02:42.014Z,12.25
2023-04-19T18:05:13.459Z,10.52
2023-04-19T18:07:41.902Z,12.40
2023-04-19T18:10:10.956Z,11.75
2023-04-19T18:12:39.380Z,11.75
2023-04-19T18:15:09.477Z,14.85
2023-04-19T18:17:38.253Z,13.90
2023-04-19T18:20:10.378Z,12.95
2023-04-19T18:22:40.464Z,13.65
2023-04-19T18:25:10.181Z,12.85
2023-04-19T18:27:38.655Z,12.70
2023-04-19T18:30:08.978Z,12.23
2023-04-19T18:32:37.756Z,12.10
2023-04-19T18:35:10.282Z,11.77
2023-04-19T18:37:39.393Z,10.85
2023-04-19T18:40:09.100Z,11.57
2023-04-19T18:42:38.401Z,12.80
2023-04-19T18:45:07.923Z,11.93
2023-04-19T18:47:37.215Z,16.25
2023-04-19T19:07:14.037Z,21.70
2023-04-19T19:23:03.881Z,14.80
2023-04-19T19:30:26.030Z,13.65
2023-04-19T19:32:54.417Z,27.33
2023-04-19T19:35:24.773Z,23.92
2023-04-19T19:37:55.379Z,17.77
2023-04-19T19:40:23.738Z,13.95
2023-04-19T19:42:52.104Z,13.35
2023-04-19T19:45:20.782Z,15.90
2023-04-19T19:47:50.456Z,13.93
2023-04-19T19:52:52.539Z,13.80
2023-04-19T19:55:22.962Z,12.27
2023-04-19T20:00:42.714Z,12.53
2023-04-19T20:03:13.460Z,12.07
2023-04-19T20:05:42.074Z,11.67
2023-04-19T20:08:12.717Z,12.60
2023-04-19T20:10:43.726Z,13.05
2023-04-19T20:13:13.239Z,12.35
2023-04-19T20:15:42.272Z,12.73
2023-04-19T20:18:10.732Z,12.05
2023-04-19T20:20:39.765Z,12.27
2023-04-19T20:23:08.099Z,14.00
2023-04-19T20:25:38.637Z,14.35
2023-04-19T20:28:09.350Z,15.60
2023-04-19T20:30:38.236Z,14.45
2023-04-19T20:33:06.644Z,15.85
2023-04-19T20:35:36.764Z,13.90
2023-04-19T20:38:07.709Z,13.00
2023-04-19T20:40:37.013Z,13.43
2023-04-19T20:43:06.826Z,12.13
2023-04-19T20:45:38.059Z,13.50
2023-04-19T20:48:08.596Z,12.43
2023-04-19T20:50:37.225Z,13.60
2023-04-19T20:53:06.207Z,13.02
2023-04-19T20:55:35.798Z,14.30
2023-04-19T20:58:04.189Z,15.98
2023-04-19T21:00:33.333Z,15.75
2023-04-19T21:03:03.331Z,13.30
2023-04-19T21:05:33.582Z,11.40
2023-04-19T21:08:01.979Z,14.93
2023-04-19T21:10:31.697Z,17.27
2023-04-19T21:13:00.085Z,13.15
2023-04-19T21:15:29.305Z,14.80
2023-04-19T21:17:58.203Z,14.90
2023-04-19T21:20:28.207Z,15.48
2023-04-19T21:22:57.120Z,16.20
2023-04-19T21:25:26.735Z,14.47
2023-04-19T21:27:55.057Z,14.93
2023-04-19T21:30:26.014Z,13.38
2023-04-19T21:32:54.435Z,14.13
2023-04-19T21:35:25.260Z,14.27
2023-04-19T22:13:06.811Z,13.77
2023-04-19T22:15:35.145Z,16.95
2023-04-19T22:18:05.509Z,14.50
2023-04-19T22:20:35.947Z,13.77
2023-04-19T22:23:04.991Z,13.73
2023-04-19T22:25:34.471Z,12.83
2023-04-19T22:28:02.855Z,15.50
2023-04-19T22:30:31.670Z,15.27
2023-04-19T22:33:00.934Z,14.30
2023-04-19T22:35:29.280Z,13.40
2023-04-19T22:38:00.502Z,15.27
2023-04-19T22:40:29.055Z,14.20
2023-04-19T22:42:58.239Z,13.33
2023-04-19T22:45:27.228Z,14.03
2023-04-19T22:47:56.842Z,15.93
2023-04-19T22:50:25.644Z,14.50
2023-04-19T22:52:54.395Z,9.68
2023-04-19T22:55:24.126Z,13.88
2023-04-19T22:57:52.511Z,13.90
2023-04-19T23:00:21.880Z,14.10
2023-04-19T23:02:50.420Z,12.80
2023-04-19T23:05:19.455Z,12.83
2023-04-19T23:07:49.642Z,11.90
2023-04-19T23:10:21.603Z,14.25
2023-04-19T23:12:51.343Z,13.13
2023-04-19T23:15:19.857Z,14.63
2023-04-19T23:17:50.626Z,13.00
2023-04-19T23:20:19.083Z,13.90
2023-04-19T23:22:48.218Z,14.37
2023-04-19T23:25:16.583Z,16.17
2023-04-19T23:27:48.280Z,16.60
2023-04-19T23:30:18.656Z,15.43
2023-04-19T23:32:47.835Z,15.13
2023-04-19T23:35:16.749Z,12.73
2023-04-19T23:37:45.095Z,13.93
2023-04-19T23:40:14.554Z,13.02
2023-04-19T23:42:42.916Z,16.13
2023-04-19T23:45:12.254Z,13.82
2023-04-19T23:47:42.093Z,12.13
2023-04-19T23:50:11.834Z,14.80
2023-04-19T23:52:40.999Z,13.00
2023-04-19T23:55:10.272Z,12.50
2023-04-19T23:57:39.978Z,15.18
